Time;durP1;ratioP1;P1;durP2;ratioP2;P2;SDS_P1;SDS_P2;PMS_P1;PMS_P2;Temp;Humidity;BMP_temperature;BMP_pressure;BME280_temperature;BME280_humidity;BME280_pressure;Samples;Min_cycle;Max_cycle;Signal;HPM_P1;HPM_P2
2022/09/19 00:01:24;;;;;;;1.70;0.40;;;9.40;99.90;;;;;;5045728;28;20241;-45
2022/09/19 00:03:54;;;;;;;0.40;0.40;;;9.40;99.90;;;;;;5041046;28;20188;-41
2022/09/19 00:06:22;;;;;;;0.60;0.20;;;9.30;99.90;;;;;;5045652;28;20211;-41
2022/09/19 00:08:49;;;;;;;0.37;0.27;;;9.30;99.90;;;;;;5042200;28;20192;-44
2022/09/19 00:11:19;;;;;;;0.67;0.20;;;9.30;99.90;;;;;;5044061;28;20191;-45
2022/09/19 00:13:48;;;;;;;0.23;0.23;;;9.20;99.90;;;;;;5041744;28;20567;-40
2022/09/19 00:16:19;;;;;;;0.27;0.27;;;9.30;99.90;;;;;;5032052;28;20219;-44
2022/09/19 00:18:48;;;;;;;0.30;0.30;;;9.20;99.90;;;;;;5042436;28;20617;-41
2022/09/19 00:21:19;;;;;;;2.40;0.40;;;9.20;99.90;;;;;;5044862;28;20203;-41
2022/09/19 00:26:31;;;;;;;0.67;0.40;;;9.20;99.90;;;;;;5044577;28;20218;-41
2022/09/19 00:28:57;;;;;;;0.37;0.37;;;9.20;99.90;;;;;;5041192;28;20791;-41
2022/09/19 00:31:24;;;;;;;1.27;0.30;;;9.20;99.90;;;;;;5025863;28;20210;-44
2022/09/19 00:33:54;;;;;;;0.50;0.50;;;9.20;99.90;;;;;;5039766;28;20608;-43
2022/09/19 00:36:21;;;;;;;2.20;0.23;;;9.20;99.90;;;;;;5045005;28;20207;-42
2022/09/19 00:38:49;;;;;;;0.47;0.40;;;9.20;99.90;;;;;;5042255;28;20936;-41
2022/09/19 00:41:18;;;;;;;0.73;0.40;;;9.20;99.90;;;;;;5044678;28;20195;-43
2022/09/19 00:43:48;;;;;;;0.40;0.40;;;9.20;99.90;;;;;;5041883;28;20703;-41
2022/09/19 00:46:16;;;;;;;0.43;0.30;;;9.20;99.90;;;;;;5031420;28;20226;-43
2022/09/19 00:48:45;;;;;;;0.80;0.40;;;9.20;99.90;;;;;;5041112;28;20187;-44
2022/09/19 00:51:17;;;;;;;0.43;0.43;;;9.20;99.90;;;;;;5043507;28;20191;-43
2022/09/19 00:53:45;;;;;;;2.97;0.40;;;9.10;99.90;;;;;;5039948;28;20191;-43
2022/09/19 00:56:15;;;;;;;0.40;0.37;;;9.10;99.90;;;;;;5042311;28;20207;-45
2022/09/19 00:58:45;;;;;;;0.30;0.30;;;9.10;99.90;;;;;;5041265;28;20196;-46
2022/09/19 01:01:13;;;;;;;1.00;0.40;;;9.20;99.90;;;;;;5042106;28;20199;-43
2022/09/19 01:03:40;;;;;;;1.07;0.40;;;9.10;99.90;;;;;;5027340;28;20245;-42
2022/09/19 01:06:22;;;;;;;0.40;0.40;;;9.20;99.90;;;;;;5041285;28;20235;-40
2022/09/19 01:09:11;;;;;;;0.80;0.33;;;9.20;99.90;;;;;;5041335;28;20713;-40
2022/09/19 01:12:15;;;;;;;1.27;0.60;;;9.20;99.90;;;;;;5043253;28;20195;-43
2022/09/19 01:15:09;;;;;;;0.83;0.50;;;9.10;99.90;;;;;;5029986;28;20230;-40
2022/09/19 01:17:45;;;;;;;0.30;0.30;;;9.10;99.90;;;;;;5055297;28;20202;-43
2022/09/19 01:20:54;;;;;;;1.10;0.50;;;9.10;99.90;;;;;;5039230;28;20199;-45
2022/09/19 01:23:43;;;;;;;0.47;0.40;;;9.20;99.90;;;;;;5043057;28;20270;-41
2022/09/19 01:26:23;;;;;;;0.60;0.40;;;9.10;99.90;;;;;;5041566;28;20239;-42
2022/09/19 01:28:56;;;;;;;2.43;0.70;;;9.10;99.90;;;;;;5038494;28;20210;-41
2022/09/19 01:31:27;;;;;;;4.07;0.50;;;9.10;99.90;;;;;;5042786;28;20207;-44
2022/09/19 01:34:04;;;;;;;0.50;0.50;;;9.10;99.90;;;;;;5026054;28;20937;-43
2022/09/19 01:36:35;;;;;;;2.40;0.60;;;9.20;99.90;;;;;;5035466;28;20276;-40
2022/09/19 01:39:05;;;;;;;0.40;0.40;;;9.20;99.90;;;;;;5039867;28;20195;-42
2022/09/19 01:41:37;;;;;;;0.83;0.50;;;9.10;99.90;;;;;;5041649;28;20782;-41
2022/09/19 01:44:16;;;;;;;1.80;0.50;;;9.10;99.90;;;;;;5040643;28;20225;-45
2022/09/19 01:46:53;;;;;;;0.70;0.50;;;9.10;99.90;;;;;;5040348;28;20199;-41
2022/09/19 01:49:35;;;;;;;1.40;0.50;;;9.10;99.90;;;;;;5029649;28;20204;-43
2022/09/19 01:52:14;;;;;;;1.70;0.50;;;9.10;99.90;;;;;;5038884;28;20215;-42
2022/09/19 01:54:49;;;;;;;0.43;0.43;;;9.10;99.90;;;;;;5039722;28;20250;-43
2022/09/19 01:57:29;;;;;;;2.13;0.47;;;9.10;99.90;;;;;;5041891;28;20655;-40
2022/09/19 02:00:08;;;;;;;1.50;0.30;;;9.20;99.90;;;;;;5035178;28;20445;-40
2022/09/19 02:02:52;;;;;;;1.53;0.70;;;9.10;99.90;;;;;;5035880;28;20191;-43
2022/09/19 02:05:30;;;;;;;1.27;0.43;;;9.10;99.90;;;;;;5028547;28;20242;-41
2022/09/19 02:08:02;;;;;;;0.93;0.47;;;9.20;99.90;;;;;;5039353;28;20183;-45
2022/09/19 02:10:34;;;;;;;2.43;0.60;;;9.20;99.90;;;;;;5041466;28;20542;-39
2022/09/19 02:13:05;;;;;;;1.50;0.40;;;9.20;99.90;;;;;;5038384;28;20195;-40
2022/09/19 02:15:48;;;;;;;1.63;0.50;;;9.20;99.90;;;;;;5040537;28;20251;-42
2022/09/19 02:18:24;;;;;;;3.07;0.70;;;9.10;99.90;;;;;;5039804;28;20282;-40
2022/09/19 02:20:55;;;;;;;0.50;0.50;;;9.10;99.90;;;;;;5025577;28;20209;-45
2022/09/19 02:23:26;;;;;;;1.50;0.40;;;9.10;99.90;;;;;;5042103;28;20281;-44
2022/09/19 02:25:56;;;;;;;0.40;0.40;;;9.20;99.90;;;;;;5037955;28;20620;-41
2022/09/19 02:28:29;;;;;;;0.77;0.77;;;9.20;99.90;;;;;;5043225;28;20192;-43
2022/09/19 02:30:59;;;;;;;2.63;0.60;;;9.20;99.90;;;;;;5038445;28;20194;-43
2022/09/19 02:33:27;;;;;;;0.47;0.23;;;9.10;99.90;;;;;;5044937;28;20206;-44
2022/09/19 02:36:00;;;;;;;1.30;0.60;;;9.10;99.90;;;;;;5030479;28;20226;-41
2022/09/19 02:38:36;;;;;;;1.03;0.50;;;9.10;99.90;;;;;;5062514;28;20225;-44
2022/09/19 02:41:13;;;;;;;1.20;0.50;;;9.10;99.90;;;;;;5043838;28;20194;-40
2022/09/19 02:43:46;;;;;;;1.50;0.43;;;9.10;99.90;;;;;;5042757;28;20229;-41
2022/09/19 02:46:21;;;;;;;0.30;0.20;;;9.10;99.90;;;;;;5045516;28;20212;-41
2022/09/19 02:48:56;;;;;;;0.30;0.30;;;9.10;99.90;;;;;;5042339;28;20609;-46
2022/09/19 02:51:28;;;;;;;1.97;0.70;;;9.10;99.90;;;;;;5045919;28;20221;-43
2022/09/19 02:54:01;;;;;;;3.13;0.83;;;9.10;99.90;;;;;;5027683;28;20210;-40
2022/09/19 02:56:34;;;;;;;0.97;0.40;;;9.10;99.90;;;;;;5025747;28;20223;-41
2022/09/19 02:59:06;;;;;;;0.73;0.37;;;9.10;99.90;;;;;;5022370;28;20192;-43
2022/09/19 03:01:50;;;;;;;1.23;0.40;;;9.10;99.90;;;;;;5023343;28;20246;-41
2022/09/19 03:04:23;;;;;;;2.30;0.40;;;9.10;99.90;;;;;;5024257;28;20204;-44
2022/09/19 03:06:58;;;;;;;0.50;0.50;;;9.10;99.90;;;;;;5011702;28;20199;-41
2022/09/19 03:09:30;;;;;;;1.60;0.50;;;9.10;99.90;;;;;;5045434;28;20253;-43
2022/09/19 03:12:05;;;;;;;1.90;0.50;;;9.10;99.90;;;;;;5040639;28;20191;-45
2022/09/19 03:14:35;;;;;;;3.23;0.50;;;9.00;99.90;;;;;;5044234;28;20219;-41
2022/09/19 03:17:05;;;;;;;0.73;0.63;;;9.00;99.90;;;;;;5042161;28;20271;-42
2022/09/19 03:19:32;;;;;;;1.87;0.80;;;9.00;99.90;;;;;;5045411;28;20267;-44
2022/09/19 03:22:00;;;;;;;1.20;0.40;;;9.00;99.90;;;;;;5029992;28;20208;-44
2022/09/19 03:24:32;;;;;;;2.00;0.40;;;9.00;99.90;;;;;;5043106;28;20202;-45
2022/09/19 03:26:58;;;;;;;2.03;0.40;;;9.00;99.90;;;;;;5040817;28;20202;-40
2022/09/19 03:29:25;;;;;;;1.73;0.63;;;9.00;99.90;;;;;;5025246;28;20211;-43
2022/09/19 03:31:55;;;;;;;2.93;0.50;;;9.00;99.90;;;;;;5020925;28;20351;-43
2022/09/19 03:34:24;;;;;;;1.20;0.40;;;9.00;99.90;;;;;;5023623;28;20203;-41
2022/09/19 03:36:52;;;;;;;0.60;0.50;;;9.00;99.90;;;;;;5021282;28;20200;-41
2022/09/19 03:39:24;;;;;;;2.10;0.57;;;9.00;99.90;;;;;;5026659;28;20207;-44
2022/09/19 03:41:52;;;;;;;1.53;0.50;;;8.90;99.90;;;;;;5052438;28;20253;-43
2022/09/19 03:44:19;;;;;;;1.47;0.57;;;8.90;99.90;;;;;;5043712;28;20191;-42
2022/09/19 03:46:46;;;;;;;0.77;0.57;;;8.90;99.90;;;;;;5042123;28;20565;-40
2022/09/19 03:49:16;;;;;;;0.50;0.50;;;8.90;99.90;;;;;;5044269;28;20195;-41
2022/09/19 03:51:46;;;;;;;0.40;0.40;;;8.90;99.90;;;;;;5042769;28;20217;-41
2022/09/19 03:54:13;;;;;;;3.47;0.67;;;8.90;99.90;;;;;;5029701;28;22150;-41
2022/09/19 03:56:42;;;;;;;1.57;0.70;;;8.80;99.90;;;;;;5041930;28;20215;-42
2022/09/19 03:59:10;;;;;;;1.43;0.70;;;8.80;99.90;;;;;;5043234;28;20218;-41
2022/09/19 04:01:40;;;;;;;1.63;0.70;;;8.70;99.90;;;;;;5043131;28;20282;-46
2022/09/19 04:04:08;;;;;;;1.63;0.60;;;8.70;99.90;;;;;;5041340;28;20962;-43
2022/09/19 04:06:40;;;;;;;1.70;1.60;;;8.60;99.90;;;;;;5042816;28;20266;-44
2022/09/19 04:09:08;;;;;;;1.97;1.00;;;8.50;99.90;;;;;;5029222;28;20320;-43
2022/09/19 04:11:36;;;;;;;2.40;0.90;;;8.60;99.90;;;;;;5042748;28;20211;-43
2022/09/19 04:14:03;;;;;;;1.67;0.60;;;8.60;99.90;;;;;;5040290;28;20951;-43
2022/09/19 04:16:31;;;;;;;1.67;0.93;;;8.60;99.90;;;;;;5044093;28;20219;-40
2022/09/19 04:18:58;;;;;;;5.90;1.20;;;8.70;99.90;;;;;;5040225;28;20183;-41
2022/09/19 04:21:43;;;;;;;3.53;0.73;;;8.60;99.90;;;;;;5042121;28;20616;-41
2022/09/19 04:24:26;;;;;;;1.53;0.83;;;8.60;99.90;;;;;;5042926;28;20203;-42
2022/09/19 04:27:13;;;;;;;2.20;0.60;;;8.60;99.90;;;;;;5040435;28;20594;-45
2022/09/19 04:29:41;;;;;;;2.83;0.60;;;8.60;99.90;;;;;;5042241;28;20547;-42
2022/09/19 04:32:09;;;;;;;1.70;0.60;;;8.70;99.90;;;;;;5042055;28;20199;-44
2022/09/19 04:34:36;;;;;;;3.07;0.73;;;8.70;99.90;;;;;;5042240;28;20211;-43
2022/09/19 04:37:06;;;;;;;2.10;0.77;;;8.70;99.90;;;;;;5041033;28;20912;-43
2022/09/19 04:39:36;;;;;;;2.43;1.10;;;8.70;99.90;;;;;;5042084;28;20202;-42
2022/09/19 04:42:03;;;;;;;1.60;0.93;;;8.70;99.90;;;;;;5031767;28;20953;-44
2022/09/19 04:44:30;;;;;;;1.67;0.90;;;8.80;99.90;;;;;;5042525;28;20224;-40
2022/09/19 04:47:14;;;;;;;1.67;0.67;;;8.80;99.90;;;;;;5042757;28;20195;-42
2022/09/19 04:49:41;;;;;;;1.73;0.60;;;8.80;99.90;;;;;;5041710;28;20612;-42
2022/09/19 04:52:12;;;;;;;1.60;0.57;;;8.80;99.90;;;;;;5041924;28;20309;-41
2022/09/19 04:54:45;;;;;;;1.50;0.70;;;8.80;99.90;;;;;;5039376;28;20716;-41
2022/09/19 04:57:11;;;;;;;2.80;1.00;;;8.80;99.90;;;;;;5028544;28;20201;-41
2022/09/19 04:59:41;;;;;;;2.00;0.60;;;8.90;99.90;;;;;;5037897;28;20199;-40
2022/09/19 05:02:08;;;;;;;2.20;0.70;;;8.90;99.90;;;;;;5039974;28;20183;-41
2022/09/19 05:04:38;;;;;;;2.47;1.00;;;8.90;99.90;;;;;;5055960;28;20226;-42
2022/09/19 05:07:06;;;;;;;3.67;1.03;;;9.00;99.90;;;;;;5060809;28;20186;-44
2022/09/19 05:09:55;;;;;;;2.67;1.17;;;9.00;99.90;;;;;;5033573;28;20939;-39
2022/09/19 05:12:28;;;;;;;2.40;1.70;;;9.00;99.90;;;;;;5023350;28;20282;-43
2022/09/19 05:14:55;;;;;;;4.83;1.47;;;9.00;99.90;;;;;;5032587;28;20223;-40
2022/09/19 05:17:23;;;;;;;2.27;1.60;;;9.00;99.90;;;;;;5039426;28;20195;-41
2022/09/19 05:19:49;;;;;;;3.83;1.70;;;9.00;99.90;;;;;;5045787;28;20206;-44
2022/09/19 05:22:17;;;;;;;2.93;1.50;;;9.10;99.90;;;;;;5040991;28;20710;-43
2022/09/19 05:24:44;;;;;;;3.67;1.67;;;9.10;99.90;;;;;;5039819;28;20212;-42
2022/09/19 05:27:12;;;;;;;7.00;1.83;;;9.10;99.90;;;;;;5031685;28;20188;-40
2022/09/19 05:29:41;;;;;;;3.97;1.63;;;9.10;99.90;;;;;;5036722;28;20234;-41
2022/09/19 05:32:07;;;;;;;2.57;1.57;;;9.10;99.90;;;;;;5040339;28;20199;-43
2022/09/19 05:34:42;;;;;;;3.07;1.50;;;9.10;99.90;;;;;;5036827;28;20265;-42
2022/09/19 05:37:27;;;;;;;2.70;1.87;;;9.20;99.90;;;;;;5039946;28;20297;-42
2022/09/19 05:40:11;;;;;;;5.60;1.80;;;9.20;99.90;;;;;;5040555;28;20199;-40
2022/09/19 05:42:49;;;;;;;5.30;1.53;;;9.20;99.90;;;;;;5051036;28;20187;-42
2022/09/19 05:45:20;;;;;;;3.00;1.37;;;9.20;99.90;;;;;;5019644;28;20233;-42
2022/09/19 05:47:50;;;;;;;2.23;1.80;;;9.20;99.90;;;;;;5037281;28;20290;-41
2022/09/19 05:50:17;;;;;;;5.07;1.43;;;9.30;99.90;;;;;;5041034;28;20217;-41
2022/09/19 05:55:30;;;;;;;6.77;1.97;;;9.30;99.90;;;;;;5045449;28;20219;-41
2022/09/19 05:58:19;;;;;;;6.03;1.80;;;9.30;99.90;;;;;;5047901;28;20209;-43
2022/09/19 06:00:46;;;;;;;3.87;1.67;;;9.30;99.90;;;;;;5025807;28;20211;-41
2022/09/19 06:03:16;;;;;;;5.50;1.77;;;9.30;99.90;;;;;;5040853;28;20195;-43
2022/09/19 06:05:45;;;;;;;5.97;1.80;;;9.30;99.90;;;;;;5038748;28;20828;-40
2022/09/19 06:08:13;;;;;;;4.40;2.00;;;9.30;99.90;;;;;;5050589;28;20229;-42
2022/09/19 06:10:41;;;;;;;6.03;2.13;;;9.30;99.90;;;;;;5038661;28;20653;-41
2022/09/19 06:13:12;;;;;;;3.97;1.50;;;9.30;99.90;;;;;;5034619;28;20902;-40
2022/09/19 06:15:41;;;;;;;2.83;1.67;;;9.40;99.90;;;;;;5026309;28;20333;-41
2022/09/19 06:18:10;;;;;;;5.00;1.67;;;9.40;99.90;;;;;;5035923;28;20226;-41
2022/09/19 06:20:42;;;;;;;7.30;2.10;;;9.40;99.90;;;;;;5033494;28;20732;-41
2022/09/19 06:23:28;;;;;;;7.73;1.80;;;9.50;99.90;;;;;;5030899;28;20195;-42
2022/09/19 06:25:55;;;;;;;7.30;1.77;;;9.60;99.90;;;;;;5047095;28;20314;-45
2022/09/19 06:28:22;;;;;;;5.50;1.43;;;9.60;99.90;;;;;;5040125;28;20214;-40
2022/09/19 06:31:05;;;;;;;8.47;1.40;;;9.60;99.90;;;;;;5023035;28;20942;-40
2022/09/19 06:33:43;;;;;;;5.27;1.93;;;9.60;99.90;;;;;;5030832;28;20207;-42
2022/09/19 06:36:18;;;;;;;6.67;2.57;;;9.70;99.90;;;;;;5039978;28;20233;-42
2022/09/19 06:38:44;;;;;;;10.03;1.83;;;9.70;99.90;;;;;;5044015;28;20195;-40
2022/09/19 06:41:31;;;;;;;4.57;1.43;;;9.80;99.90;;;;;;5039699;28;20214;-41
2022/09/19 06:44:17;;;;;;;6.23;2.47;;;9.90;99.90;;;;;;5037939;28;20253;-40
2022/09/19 06:47:05;;;;;;;2.43;1.57;;;9.90;99.90;;;;;;5021554;28;20264;-42
2022/09/19 06:49:52;;;;;;;8.40;1.73;;;10.10;99.90;;;;;;5036588;28;20294;-42
2022/09/19 06:52:30;;;;;;;9.10;1.70;;;10.10;99.90;;;;;;5036746;28;20206;-41
2022/09/19 06:54:58;;;;;;;8.40;2.20;;;10.20;99.90;;;;;;5046021;28;20330;-40
2022/09/19 06:57:25;;;;;;;9.27;1.63;;;10.30;99.90;;;;;;5053896;28;20208;-42
2022/09/19 06:59:52;;;;;;;11.37;2.00;;;10.40;99.90;;;;;;5036382;28;20595;-42
2022/09/19 07:02:21;;;;;;;11.20;2.23;;;10.50;99.90;;;;;;5021615;28;20204;-41
2022/09/19 07:04:49;;;;;;;6.67;1.80;;;10.60;99.90;;;;;;5031564;28;20219;-42
2022/09/19 07:07:36;;;;;;;10.00;2.10;;;10.70;99.90;;;;;;5038449;28;20211;-42
2022/09/19 07:10:04;;;;;;;7.43;1.80;;;10.80;99.90;;;;;;5038431;28;20217;-41
2022/09/19 07:12:32;;;;;;;10.33;2.37;;;11.00;99.90;;;;;;5053474;28;20290;-41
2022/09/19 07:15:04;;;;;;;14.63;2.30;;;11.10;99.90;;;;;;5043356;28;20231;-44
2022/09/19 07:17:33;;;;;;;10.50;2.00;;;11.20;99.90;;;;;;5029392;28;20285;-41
2022/09/19 07:20:00;;;;;;;13.37;2.87;;;11.40;99.90;;;;;;5054183;28;20290;-43
2022/09/19 07:23:00;;;;;;;7.23;1.93;;;11.50;99.90;;;;;;5023927;28;20321;-43
2022/09/19 07:25:48;;;;;;;13.83;2.80;;;11.60;99.90;;;;;;5050723;28;20977;-40
2022/09/19 07:28:19;;;;;;;13.83;2.60;;;11.80;99.90;;;;;;5051819;28;20215;-41
2022/09/19 07:30:47;;;;;;;12.47;2.40;;;11.90;99.90;;;;;;5038487;28;20249;-42
2022/09/19 07:33:19;;;;;;;9.30;2.00;;;12.00;99.90;;;;;;5050633;28;20242;-44
2022/09/19 07:35:47;;;;;;;8.00;2.07;;;12.10;99.90;;;;;;5025830;28;20218;-41
2022/09/19 07:38:17;;;;;;;19.57;2.83;;;12.30;99.90;;;;;;5045071;28;20210;-41
2022/09/19 07:41:03;;;;;;;13.80;2.17;;;12.30;99.90;;;;;;5049463;28;20563;-41
2022/09/19 07:43:35;;;;;;;7.20;2.40;;;12.40;99.90;;;;;;5036944;28;20191;-40
2022/09/19 07:46:21;;;;;;;11.13;2.53;;;12.60;99.90;;;;;;5045253;28;20250;-41
2022/09/19 07:49:08;;;;;;;12.10;2.17;;;12.70;99.90;;;;;;5031887;28;20210;-42
2022/09/19 07:51:54;;;;;;;11.73;1.93;;;12.90;99.90;;;;;;5027611;28;20214;-43
2022/09/19 07:54:20;;;;;;;10.43;2.87;;;13.00;99.90;;;;;;5036032;28;20235;-42
2022/09/19 07:56:48;;;;;;;14.80;2.27;;;13.10;99.90;;;;;;5046199;28;20230;-45
2022/09/19 07:59:17;;;;;;;11.83;2.30;;;13.20;99.90;;;;;;5043089;28;20207;-39
2022/09/19 08:01:51;;;;;;;13.70;3.17;;;13.30;99.90;;;;;;5048364;28;20980;-41
2022/09/19 08:04:33;;;;;;;8.90;2.40;;;13.40;99.90;;;;;;5044202;28;20286;-40
2022/09/19 08:07:01;;;;;;;14.27;2.40;;;13.50;99.90;;;;;;5043358;28;20246;-44
2022/09/19 08:09:29;;;;;;;8.77;1.43;;;13.60;99.90;;;;;;5037419;28;20203;-40
2022/09/19 08:12:03;;;;;;;9.20;2.10;;;13.70;99.90;;;;;;5041425;28;20253;-42
2022/09/19 08:14:31;;;;;;;9.80;2.00;;;13.90;99.90;;;;;;5054473;28;20210;-42
2022/09/19 08:16:59;;;;;;;8.07;2.00;;;13.90;99.90;;;;;;5050003;28;20215;-45
2022/09/19 08:19:26;;;;;;;7.60;2.00;;;14.00;99.90;;;;;;5033826;28;20192;-40
2022/09/19 08:21:54;;;;;;;12.10;2.20;;;14.10;99.90;;;;;;5034169;28;20214;-43
2022/09/19 08:24:21;;;;;;;7.60;1.77;;;14.10;99.90;;;;;;5042477;28;20219;-43
2022/09/19 08:26:51;;;;;;;13.53;2.60;;;14.20;99.90;;;;;;5041625;28;20191;-40
2022/09/19 08:29:18;;;;;;;11.50;2.10;;;14.30;99.90;;;;;;5038045;28;20554;-39
2022/09/19 08:31:59;;;;;;;9.23;1.73;;;14.30;99.90;;;;;;5046453;28;20217;-40
2022/09/19 08:34:26;;;;;;;8.63;2.50;;;14.40;99.90;;;;;;5025193;28;20210;-40
2022/09/19 08:36:58;;;;;;;5.40;1.50;;;14.40;99.90;;;;;;5039195;28;20219;-40
2022/09/19 08:39:26;;;;;;;7.93;2.03;;;14.40;99.90;;;;;;5037764;28;20198;-41
2022/09/19 08:42:04;;;;;;;8.63;2.60;;;14.40;99.90;;;;;;5041481;28;20195;-41
2022/09/19 08:44:50;;;;;;;5.57;2.03;;;14.50;99.90;;;;;;5035113;28;20222;-41
2022/09/19 08:47:21;;;;;;;6.77;1.60;;;14.50;99.90;;;;;;5043312;28;20202;-42
2022/09/19 08:49:55;;;;;;;9.27;1.63;;;14.50;99.90;;;;;;5036699;28;20184;-41
2022/09/19 08:52:36;;;;;;;7.43;1.50;;;14.50;99.90;;;;;;5026192;28;20318;-42
2022/09/19 08:55:10;;;;;;;7.13;1.47;;;14.50;99.90;;;;;;5053420;28;20253;-42
2022/09/19 08:57:42;;;;;;;9.27;1.60;;;14.60;99.90;;;;;;5038963;28;20482;-41
2022/09/19 09:00:19;;;;;;;7.77;1.53;;;14.60;99.90;;;;;;5018404;28;20325;-42
2022/09/19 09:02:56;;;;;;;7.37;1.40;;;14.70;99.90;;;;;;5040514;28;20294;-40
2022/09/19 09:05:39;;;;;;;8.40;1.67;;;14.80;99.90;;;;;;5044233;28;20244;-42
2022/09/19 09:08:19;;;;;;;5.43;2.03;;;14.90;99.90;;;;;;5019298;28;20292;-42
2022/09/19 09:10:55;;;;;;;7.63;1.13;;;14.90;99.90;;;;;;5042778;28;20230;-40
2022/09/19 09:13:40;;;;;;;6.00;0.93;;;15.10;99.90;;;;;;5041733;28;20195;-42
2022/09/19 09:16:16;;;;;;;5.67;0.93;;;15.20;99.90;;;;;;5027252;28;20484;-40
2022/09/19 09:19:07;;;;;;;6.67;1.20;;;15.30;99.90;;;;;;5042795;28;20230;-41
2022/09/19 09:21:42;;;;;;;5.50;1.17;;;15.40;99.90;;;;;;5041987;28;20209;-40
2022/09/19 09:24:17;;;;;;;5.80;1.23;;;15.50;99.90;;;;;;5024585;28;21031;-40
2022/09/19 09:27:04;;;;;;;3.40;1.00;;;15.50;99.90;;;;;;5057693;28;20314;-43
2022/09/19 09:29:36;;;;;;;4.03;1.17;;;15.60;99.90;;;;;;5041369;28;20289;-43
2022/09/19 09:32:17;;;;;;;4.50;1.00;;;15.60;99.90;;;;;;5030106;28;20214;-41
2022/09/19 09:34:59;;;;;;;16.07;1.40;;;15.60;99.90;;;;;;5044240;28;20215;-40
2022/09/19 09:37:32;;;;;;;3.57;1.30;;;15.60;99.90;;;;;;5040340;28;20226;-43
2022/09/19 09:40:13;;;;;;;7.00;0.93;;;15.60;99.90;;;;;;5023031;28;20911;-40
2022/09/19 09:42:50;;;;;;;4.90;1.33;;;15.60;99.90;;;;;;5045217;28;20202;-40
2022/09/19 09:45:27;;;;;;;4.47;1.43;;;15.60;99.90;;;;;;5032802;28;23241;-40
2022/09/19 09:48:08;;;;;;;8.80;1.57;;;15.60;99.90;;;;;;5059802;28;20209;-41
2022/09/19 09:50:50;;;;;;;6.33;1.20;;;15.60;99.90;;;;;;5045259;28;20203;-41
2022/09/19 09:53:30;;;;;;;6.03;1.57;;;15.70;99.90;;;;;;5020521;28;20218;-41
2022/09/19 09:56:14;;;;;;;5.47;1.53;;;15.70;99.90;;;;;;5036069;28;20231;-41
2022/09/19 09:58:53;;;;;;;3.63;0.93;;;15.80;99.90;;;;;;5048806;28;20234;-40
2022/09/19 10:04:26;;;;;;;4.57;1.00;;;15.90;99.90;;;;;;5032889;28;20274;-41
2022/09/19 10:07:14;;;;;;;6.30;1.17;;;16.00;99.90;;;;;;5048056;28;20203;-42
2022/09/19 10:09:49;;;;;;;2.43;0.80;;;16.00;99.90;;;;;;5022940;28;20541;-42
2022/09/19 10:12:23;;;;;;;6.07;1.40;;;16.00;99.90;;;;;;5036268;28;20191;-44
2022/09/19 10:14:55;;;;;;;3.80;0.70;;;16.10;99.90;;;;;;5027654;28;20259;-42
2022/09/19 10:17:46;;;;;;;3.33;0.90;;;16.20;99.90;;;;;;5032729;28;20704;-40
2022/09/19 10:20:20;;;;;;;7.97;1.40;;;16.20;99.90;;;;;;5049670;28;20194;-41
2022/09/19 10:22:48;;;;;;;3.07;0.50;;;16.30;99.90;;;;;;5041367;28;20199;-44
2022/09/19 10:25:18;;;;;;;4.43;1.00;;;16.30;99.90;;;;;;5026415;28;20252;-40
2022/09/19 10:27:49;;;;;;;1.77;0.70;;;16.40;99.90;;;;;;5037890;28;20188;-40
2022/09/19 10:30:25;;;;;;;5.00;1.23;;;16.50;99.90;;;;;;5072796;28;20207;-40
2022/09/19 10:32:54;;;;;;;2.27;0.50;;;16.50;99.90;;;;;;5031893;28;20363;-40
2022/09/19 10:35:40;;;;;;;3.33;1.13;;;16.50;99.90;;;;;;5035793;28;20959;-41
2022/09/19 10:38:13;;;;;;;2.20;0.80;;;16.40;99.90;;;;;;5050717;28;20207;-41
2022/09/19 10:40:54;;;;;;;3.97;0.80;;;16.50;99.90;;;;;;5022495;28;20257;-43
2022/09/19 10:43:30;;;;;;;3.70;1.17;;;16.50;99.90;;;;;;5036911;28;20566;-41
2022/09/19 10:45:58;;;;;;;2.20;0.60;;;16.40;99.90;;;;;;5038351;28;20651;-41
2022/09/19 10:48:30;;;;;;;1.47;0.87;;;16.30;99.90;;;;;;5026552;28;20675;-41
2022/09/19 10:50:57;;;;;;;3.20;0.90;;;16.30;99.90;;;;;;5041870;28;20276;-42
2022/09/19 10:53:28;;;;;;;1.77;0.50;;;16.20;99.90;;;;;;5039426;28;20227;-40
2022/09/19 10:56:02;;;;;;;2.57;0.50;;;16.30;99.90;;;;;;5025301;28;20218;-44
2022/09/19 10:58:39;;;;;;;4.07;1.27;;;16.50;99.90;;;;;;5042780;28;20211;-42
2022/09/19 11:01:22;;;;;;;2.97;0.50;;;16.70;99.90;;;;;;5045298;28;20203;-44
2022/09/19 11:04:05;;;;;;;3.73;0.50;;;16.80;99.90;;;;;;5038025;28;20215;-43
2022/09/19 11:06:34;;;;;;;1.70;0.60;;;16.90;99.90;;;;;;5041605;28;20828;-40
2022/09/19 11:09:24;;;;;;;4.93;0.90;;;16.90;99.90;;;;;;5043849;28;20200;-44
2022/09/19 11:11:50;;;;;;;3.50;0.90;;;16.80;99.90;;;;;;5030139;28;20211;-39
2022/09/19 11:14:44;;;;;;;3.23;0.73;;;16.70;99.90;;;;;;5032276;28;20242;-42
2022/09/19 11:17:39;;;;;;;0.57;0.30;;;16.60;99.90;;;;;;5042812;28;20211;-42
2022/09/19 11:20:19;;;;;;;2.87;0.50;;;16.60;99.90;;;;;;5034504;28;20637;-41
2022/09/19 11:23:30;;;;;;;1.93;0.40;;;16.70;99.90;;;;;;5042790;28;20585;-42
2022/09/19 11:26:04;;;;;;;3.03;0.70;;;16.90;99.90;;;;;;5022785;28;20612;-41
2022/09/19 11:28:43;;;;;;;4.27;0.60;;;17.00;99.90;;;;;;5032444;28;20950;-40
2022/09/19 11:31:23;;;;;;;1.70;0.30;;;17.10;99.90;;;;;;5045666;28;20566;-44
2022/09/19 11:33:57;;;;;;;3.13;0.50;;;17.10;99.90;;;;;;5039685;28;20424;-41
2022/09/19 11:36:49;;;;;;;2.23;0.63;;;17.10;99.90;;;;;;5024246;28;20233;-41
2022/09/19 11:39:23;;;;;;;1.60;0.83;;;17.10;99.90;;;;;;5038854;28;20188;-41
2022/09/19 11:42:04;;;;;;;0.63;0.30;;;17.30;99.90;;;;;;5027063;28;20305;-42
2022/09/19 11:44:46;;;;;;;2.00;0.73;;;17.40;99.90;;;;;;5036439;28;20199;-43
2022/09/19 11:47:32;;;;;;;1.40;0.40;;;17.50;99.90;;;;;;5039792;28;20199;-41
2022/09/19 11:50:32;;;;;;;1.50;0.40;;;17.40;99.90;;;;;;5042371;28;20192;-42
2022/09/19 11:53:35;;;;;;;1.40;0.30;;;17.30;99.90;;;;;;5038686;28;20314;-42
2022/09/19 11:56:35;;;;;;;0.63;0.20;;;17.20;99.90;;;;;;5048041;28;20212;-41
2022/09/19 11:59:13;;;;;;;1.63;0.40;;;17.10;99.90;;;;;;5027795;28;20223;-41
2022/09/19 12:01:53;;;;;;;2.87;0.40;;;17.00;99.90;;;;;;5027518;28;20817;-40
2022/09/19 12:04:35;;;;;;;1.93;0.50;;;16.90;99.90;;;;;;5034366;28;20282;-43
2022/09/19 12:07:28;;;;;;;4.30;0.73;;;16.80;99.90;;;;;;5026328;28;20241;-41
2022/09/19 12:10:08;;;;;;;2.13;0.70;;;16.50;99.90;;;;;;5032662;28;20248;-43
2022/09/19 12:12:37;;;;;;;2.30;0.63;;;16.00;99.90;;;;;;5050834;28;20195;-43
2022/09/19 12:15:22;;;;;;;2.23;0.43;;;15.40;99.90;;;;;;5038901;28;20226;-43
2022/09/19 12:17:56;;;;;;;1.77;0.60;;;14.70;99.90;;;;;;5034153;28;20219;-42
2022/09/19 12:20:34;;;;;;;2.03;0.53;;;14.40;99.90;;;;;;5041287;28;20187;-47
2022/09/19 12:25:57;;;;;;;2.00;0.50;;;13.90;99.90;;;;;;5037833;28;20218;-45
2022/09/19 12:28:30;;;;;;;1.53;0.50;;;13.80;99.90;;;;;;5028252;28;20203;-40
2022/09/19 12:31:02;;;;;;;1.63;0.67;;;13.70;99.90;;;;;;5039132;28;20184;-44
2022/09/19 12:33:34;;;;;;;2.90;0.90;;;13.70;99.90;;;;;;5040824;28;20684;-43
2022/09/19 12:36:10;;;;;;;1.33;0.50;;;13.60;99.90;;;;;;5041004;28;20203;-41
2022/09/19 12:38:42;;;;;;;1.87;0.53;;;13.60;99.90;;;;;;5034890;28;20277;-41
2022/09/19 12:41:17;;;;;;;3.47;0.50;;;13.60;99.90;;;;;;5037028;28;20285;-44
2022/09/19 12:43:50;;;;;;;3.10;0.60;;;13.60;99.90;;;;;;5026994;28;20206;-41
2022/09/19 12:46:41;;;;;;;4.23;0.70;;;13.60;99.90;;;;;;5041495;28;20230;-41
2022/09/19 12:49:20;;;;;;;1.70;0.60;;;13.60;99.90;;;;;;5036709;28;20195;-43
2022/09/19 12:52:17;;;;;;;1.30;0.67;;;13.60;99.90;;;;;;5040022;28;20215;-43
2022/09/19 12:54:50;;;;;;;2.53;0.40;;;13.70;99.90;;;;;;5032518;28;20687;-42
2022/09/19 12:57:23;;;;;;;2.00;0.87;;;13.60;99.90;;;;;;5041496;28;20203;-41
2022/09/19 12:59:54;;;;;;;1.73;0.87;;;13.60;99.90;;;;;;5026397;28;20210;-40
2022/09/19 13:02:28;;;;;;;1.90;1.03;;;13.50;99.90;;;;;;5040296;28;20200;-45
2022/09/19 13:05:01;;;;;;;1.37;0.60;;;13.50;99.90;;;;;;5045781;28;20226;-40
2022/09/19 13:07:36;;;;;;;2.33;0.53;;;13.50;99.90;;;;;;5043103;28;20207;-40
2022/09/19 13:10:18;;;;;;;3.03;0.77;;;13.50;99.90;;;;;;5030782;28;20416;-44
2022/09/19 13:12:51;;;;;;;1.47;0.57;;;13.40;99.90;;;;;;5038953;28;20558;-40
2022/09/19 13:15:25;;;;;;;2.20;0.77;;;13.40;99.90;;;;;;5027068;28;20223;-42
2022/09/19 13:23:35;;;;;;;1.63;0.60;;;13.40;99.90;;;;;;5041641;28;20206;-41
2022/09/19 13:26:27;;;;;;;1.27;0.77;;;13.40;99.90;;;;;;5030922;28;20237;-46
2022/09/19 13:28:54;;;;;;;1.30;0.67;;;13.50;99.90;;;;;;5033204;28;20200;-48
2022/09/19 13:31:25;;;;;;;2.53;1.00;;;13.50;99.90;;;;;;5028410;28;20208;-45
2022/09/19 13:33:53;;;;;;;6.43;1.00;;;13.50;99.90;;;;;;5027602;28;20744;-45
2022/09/19 13:36:45;;;;;;;1.87;0.80;;;13.60;99.90;;;;;;5053365;28;20215;-47
2022/09/19 13:39:53;;;;;;;3.57;0.90;;;13.70;99.90;;;;;;5042874;28;20393;-46
2022/09/19 13:42:27;;;;;;;1.63;0.90;;;13.90;99.90;;;;;;5030650;28;20203;-49
2022/09/19 13:45:05;;;;;;;2.50;0.97;;;14.60;99.90;;;;;;5037602;28;20568;-50
2022/09/19 13:47:37;;;;;;;1.67;0.80;;;15.30;99.90;;;;;;5026215;28;20198;-48